Time;durP1;ratioP1;P1;durP2;ratioP2;P2;SDS_P1;SDS_P2;PMS_P1;PMS_P2;Temp;Humidity;BMP_temperature;BMP_pressure;BME280_temperature;BME280_humidity;BME280_pressure;Samples;Min_cycle;Max_cycle;Signal;HPM_P1;HPM_P2
2024/01/03 00:00:43;;;;;;;9.30;6.50;;;;;;;4.45;91.45;96873.39;226485;1274;22562;-75
2024/01/03 00:05:45;;;;;;;7.60;5.50;;;;;;;4.46;91.29;96866.02;226432;1269;22618;-74
2024/01/03 00:10:54;;;;;;;7.60;5.20;;;;;;;4.46;91.41;96861.71;226314;1273;25261;-75
2024/01/03 00:15:59;;;;;;;9.70;6.60;;;;;;;4.45;91.55;96856.77;226468;1273;22593;-75
2024/01/03 00:21:02;;;;;;;6.40;5.20;;;;;;;4.47;91.54;96849.09;226525;1274;22576;-74
2024/01/03 00:26:09;;;;;;;5.90;3.90;;;;;;;4.51;91.65;96838.65;226541;1272;22537;-74
2024/01/03 00:31:32;;;;;;;6.10;4.30;;;;;;;4.53;91.54;96835.91;226382;1272;22571;-76
2024/01/03 00:36:34;;;;;;;4.00;3.30;;;;;;;4.56;91.48;96823.67;226496;1273;22569;-73
2024/01/03 00:41:37;;;;;;;4.10;3.00;;;;;;;4.59;91.44;96813.54;226383;1274;22548;-74
2024/01/03 00:46:39;;;;;;;4.30;3.30;;;;;;;4.61;91.39;96805.72;226412;1272;22603;-73
2024/01/03 00:51:47;;;;;;;4.20;3.10;;;;;;;4.62;91.70;96798.30;226487;1256;22604;-73
2024/01/03 00:56:50;;;;;;;4.30;3.30;;;;;;;4.62;91.42;96794.61;226585;1270;22628;-74
2024/01/03 01:01:54;;;;;;;4.20;3.20;;;;;;;4.61;91.49;96786.68;226516;1274;22559;-74
2024/01/03 01:06:57;;;;;;;6.00;3.60;;;;;;;4.60;91.64;96777.59;226604;1272;23284;-74
2024/01/03 01:11:59;;;;;;;5.30;3.80;;;;;;;4.62;91.61;96766.09;226514;1274;22582;-74
2024/01/03 01:17:01;;;;;;;5.70;3.40;;;;;;;4.63;91.53;96765.77;226520;1274;22570;-74
2024/01/03 01:22:03;;;;;;;4.80;3.60;;;;;;;4.65;91.64;96761.63;226512;1274;22536;-74
2024/01/03 01:27:05;;;;;;;3.60;2.80;;;;;;;4.67;91.84;96757.05;226461;1251;22549;-74
2024/01/03 01:32:08;;;;;;;5.10;3.30;;;;;;;4.70;91.89;96750.45;226315;1274;22544;-74
2024/01/03 01:37:13;;;;;;;4.60;3.50;;;;;;;4.72;92.37;96742.45;226476;1274;22565;-74
2024/01/03 01:42:15;;;;;;;3.70;3.20;;;;;;;4.75;92.05;96734.20;226551;1273;22945;-73
2024/01/03 01:47:18;;;;;;;3.50;2.60;;;;;;;4.78;92.52;96734.30;226530;1274;23097;-74
2024/01/03 01:52:21;;;;;;;3.90;3.40;;;;;;;4.82;92.65;96728.83;226543;1273;22548;-74
2024/01/03 01:57:24;;;;;;;4.30;3.50;;;;;;;4.88;92.81;96723.41;226632;1274;25242;-74
2024/01/03 02:02:27;;;;;;;4.10;3.40;;;;;;;4.93;92.87;96723.71;226703;1272;22545;-73
2024/01/03 02:07:30;;;;;;;3.40;3.00;;;;;;;4.99;93.14;96727.54;226435;1272;22548;-74
2024/01/03 02:12:32;;;;;;;2.90;2.70;;;;;;;5.05;93.02;96721.70;226627;1274;22546;-74
2024/01/03 02:17:38;;;;;;;4.50;2.60;;;;;;;5.12;93.11;96705.33;226372;1270;22557;-74
2024/01/03 02:22:40;;;;;;;2.80;2.00;;;;;;;5.22;93.57;96703.45;226557;1251;22543;-76
2024/01/03 02:27:42;;;;;;;2.30;2.10;;;;;;;5.32;94.00;96700.90;226310;1261;22545;-75
2024/01/03 02:32:44;;;;;;;2.10;1.90;;;;;;;5.42;93.96;96703.77;226358;1273;22547;-75
2024/01/03 02:37:46;;;;;;;3.20;2.30;;;;;;;5.51;94.17;96698.85;226256;1274;22556;-74
2024/01/03 02:42:48;;;;;;;2.80;2.50;;;;;;;5.58;93.93;96702.91;226411;1273;22563;-74
2024/01/03 02:47:50;;;;;;;2.90;2.60;;;;;;;5.65;93.84;96699.20;226542;1269;23042;-74
2024/01/03 02:52:52;;;;;;;3.00;2.60;;;;;;;5.72;94.43;96694.98;226504;1273;22547;-74
2024/01/03 02:57:55;;;;;;;2.80;2.50;;;;;;;5.77;93.94;96698.11;226406;1274;22565;-73
2024/01/03 03:02:57;;;;;;;2.70;2.20;;;;;;;5.79;93.86;96698.90;226370;1273;22563;-75
2024/01/03 03:07:59;;;;;;;2.60;2.30;;;;;;;5.79;93.81;96694.19;226503;1273;24640;-73
2024/01/03 03:13:01;;;;;;;2.50;2.30;;;;;;;5.79;93.77;96690.20;226479;1268;22551;-76
2024/01/03 03:18:06;;;;;;;3.10;2.80;;;;;;;5.78;94.01;96692.50;226157;1274;24369;-76
2024/01/03 03:23:09;;;;;;;2.50;2.30;;;;;;;5.79;93.77;96687.11;226544;1274;22600;-75
2024/01/03 03:28:11;;;;;;;2.80;2.50;;;;;;;5.78;93.81;96682.86;226384;1259;22608;-75
2024/01/03 03:33:13;;;;;;;3.00;2.30;;;;;;;5.78;93.82;96680.70;226407;1274;22557;-72
2024/01/03 03:38:15;;;;;;;2.20;1.90;;;;;;;5.79;94.14;96680.09;226299;1274;22573;-74
2024/01/03 03:43:18;;;;;;;1.70;1.60;;;;;;;5.80;94.04;96679.65;226499;1272;25399;-74
2024/01/03 03:48:20;;;;;;;2.20;1.70;;;;;;;5.82;93.70;96680.34;226462;1272;25417;-74
2024/01/03 03:53:22;;;;;;;1.80;1.60;;;;;;;5.84;94.23;96682.78;226411;1270;22567;-74
2024/01/03 03:58:24;;;;;;;1.10;1.00;;;;;;;5.87;94.19;96688.14;226468;1274;25925;-74
2024/01/03 04:03:26;;;;;;;1.60;1.20;;;;;;;5.92;94.34;96693.67;226480;1273;22544;-75
2024/01/03 04:08:28;;;;;;;0.90;0.70;;;;;;;5.98;94.32;96685.11;226370;1272;22580;-73
2024/01/03 04:13:30;;;;;;;1.20;1.10;;;;;;;6.07;94.35;96682.25;226492;1273;22537;-74
2024/01/03 04:18:33;;;;;;;1.20;1.00;;;;;;;6.16;93.97;96694.45;226470;1273;22545;-75
2024/01/03 04:23:36;;;;;;;1.20;1.00;;;;;;;6.20;93.85;96698.52;226449;1270;22532;-75
2024/01/03 04:28:38;;;;;;;1.20;1.10;;;;;;;6.21;94.15;96702.66;226487;1273;22587;-75
2024/01/03 04:33:40;;;;;;;1.30;1.10;;;;;;;6.22;94.07;96704.15;226611;1267;22538;-74
2024/01/03 04:38:42;;;;;;;1.80;1.30;;;;;;;6.22;93.62;96709.48;226322;1274;22956;-74
2024/01/03 04:43:45;;;;;;;2.00;1.20;;;;;;;6.21;94.04;96716.49;226578;1263;22596;-75
2024/01/03 04:48:47;;;;;;;1.50;1.30;;;;;;;6.22;93.87;96703.83;226340;1274;22538;-75
2024/01/03 04:53:50;;;;;;;1.70;1.40;;;;;;;6.24;94.08;96697.27;226512;1274;22526;-74
2024/01/03 04:58:52;;;;;;;2.00;1.40;;;;;;;6.26;93.71;96699.46;226636;1271;22540;-75
2024/01/03 05:03:54;;;;;;;2.00;1.60;;;;;;;6.25;93.48;96698.98;226512;1274;22545;-74
2024/01/03 05:08:56;;;;;;;2.30;1.40;;;;;;;6.25;93.86;96699.66;226514;1273;22567;-75
2024/01/03 05:13:59;;;;;;;2.20;1.80;;;;;;;6.26;93.75;96699.34;226474;1272;22554;-75
2024/01/03 05:19:01;;;;;;;4.30;2.20;;;;;;;6.31;93.95;96703.64;226353;1264;22549;-75
2024/01/03 05:24:03;;;;;;;3.50;2.30;;;;;;;6.35;93.98;96707.20;226411;1265;22563;-75
2024/01/03 05:29:05;;;;;;;4.00;2.70;;;;;;;6.39;93.75;96706.60;226456;1274;22819;-75
2024/01/03 05:34:09;;;;;;;4.80;2.80;;;;;;;6.42;93.94;96696.17;226412;1270;25411;-75
2024/01/03 05:39:14;;;;;;;4.00;2.50;;;;;;;6.42;93.79;96697.02;226591;1267;22556;-75
2024/01/03 05:44:16;;;;;;;3.10;2.30;;;;;;;6.43;93.66;96707.46;226576;1271;23313;-73
2024/01/03 05:49:18;;;;;;;3.80;2.50;;;;;;;6.46;93.75;96707.23;226570;1274;22556;-74
2024/01/03 05:54:21;;;;;;;3.70;2.40;;;;;;;6.50;93.80;96712.55;226443;1269;23043;-75
2024/01/03 05:59:24;;;;;;;2.70;2.40;;;;;;;6.55;93.80;96718.27;226532;1274;22592;-74
2024/01/03 06:04:26;;;;;;;5.30;2.60;;;;;;;6.60;93.69;96726.75;226546;1269;22572;-73
2024/01/03 06:09:28;;;;;;;3.10;2.70;;;;;;;6.66;93.76;96729.98;226431;1274;22532;-74
2024/01/03 06:14:30;;;;;;;3.70;2.50;;;;;;;6.70;93.81;96730.34;226501;1272;22564;-76
2024/01/03 06:19:32;;;;;;;3.80;2.50;;;;;;;6.74;93.66;96729.11;226348;1274;24300;-75
2024/01/03 06:24:34;;;;;;;3.40;2.70;;;;;;;6.78;93.51;96733.33;226623;1271;22537;-75
2024/01/03 06:29:37;;;;;;;5.40;3.50;;;;;;;6.80;93.38;96739.56;226399;1273;22702;-75
2024/01/03 06:34:43;;;;;;;5.90;3.70;;;;;;;6.82;93.57;96743.02;226390;1274;24285;-75
2024/01/03 06:39:45;;;;;;;4.00;3.30;;;;;;;6.82;93.24;96746.39;226548;1269;22594;-75
2024/01/03 06:44:47;;;;;;;4.70;3.40;;;;;;;6.85;93.38;96759.41;226363;1260;22561;-75
2024/01/03 06:49:49;;;;;;;6.50;3.80;;;;;;;6.89;93.20;96761.24;226377;1266;22533;-74
2024/01/03 06:54:54;;;;;;;8.20;4.70;;;;;;;6.94;93.07;96770.75;226119;1264;22698;-75
2024/01/03 06:59:56;;;;;;;6.00;2.90;;;;;;;6.98;92.87;96776.04;226239;1263;22976;-72
2024/01/03 07:04:59;;;;;;;3.90;1.90;;;;;;;7.03;92.77;96787.14;226006;1263;22559;-75
2024/01/03 07:10:01;;;;;;;5.70;2.60;;;;;;;7.06;92.87;96781.88;225993;1251;24366;-74
2024/01/03 07:15:03;;;;;;;2.40;2.00;;;;;;;7.09;93.14;96771.71;225870;1254;22558;-76
2024/01/03 07:20:06;;;;;;;2.70;1.90;;;;;;;7.12;92.93;96778.73;225864;1260;22567;-75
2024/01/03 07:25:08;;;;;;;2.30;1.70;;;;;;;7.14;92.64;96784.66;225738;1259;22541;-76
2024/01/03 07:30:11;;;;;;;3.50;2.20;;;;;;;7.18;92.69;96794.98;225732;1266;22597;-76
2024/01/03 07:35:29;;;;;;;3.50;2.00;;;;;;;7.21;92.55;96801.82;228941;1265;24372;-76
2024/01/03 07:40:42;;;;;;;3.70;2.10;;;;;;;7.25;92.48;96810.93;226807;1263;22560;-77
2024/01/03 07:45:44;;;;;;;2.60;1.90;;;;;;;7.28;92.42;96815.20;225833;1250;22542;-76
2024/01/03 07:50:47;;;;;;;3.30;2.10;;;;;;;7.29;92.48;96811.76;225801;1250;22604;-77
2024/01/03 07:55:49;;;;;;;5.40;2.20;;;;;;;7.31;92.52;96808.10;225772;1266;24331;-76
2024/01/03 08:00:58;;;;;;;3.70;2.00;;;;;;;7.40;92.58;96807.39;225892;1250;23508;-74
2024/01/03 08:06:00;;;;;;;4.20;2.10;;;;;;;7.48;92.51;96809.70;226038;1254;25402;-76
2024/01/03 08:11:07;;;;;;;3.20;2.30;;;;;;;7.55;92.13;96810.98;225912;1260;22850;-77
2024/01/03 08:16:13;;;;;;;7.10;2.90;;;;;;;7.59;92.08;96815.05;226177;1270;22581;-77
2024/01/03 08:21:15;;;;;;;14.90;3.60;;;;;;;7.67;91.77;96823.27;225931;1256;22703;-77
2024/01/03 08:26:19;;;;;;;17.90;4.70;;;;;;;7.72;91.34;96822.27;226054;1256;22700;-77
2024/01/03 08:31:21;;;;;;;5.60;3.50;;;;;;;7.77;91.51;96829.73;226025;1266;22573;-73
2024/01/03 08:36:39;;;;;;;5.10;2.80;;;;;;;7.82;90.99;96833.30;226141;1269;22547;-73
2024/01/03 08:41:41;;;;;;;7.40;3.70;;;;;;;7.85;91.08;96847.44;226873;1266;22611;-74
2024/01/03 08:46:44;;;;;;;6.30;3.60;;;;;;;7.86;90.72;96844.14;225835;1266;22551;-75
2024/01/03 08:51:47;;;;;;;6.60;4.20;;;;;;;7.88;90.40;96851.79;225914;1253;22563;-75
2024/01/03 08:56:50;;;;;;;6.50;4.00;;;;;;;7.90;90.38;96856.43;226075;1251;22540;-78
2024/01/03 09:01:52;;;;;;;7.00;4.10;;;;;;;7.89;90.10;96862.70;226070;1253;23014;-75
2024/01/03 09:06:56;;;;;;;8.20;3.30;;;;;;;7.87;90.08;96875.08;226079;1272;25350;-74
2024/01/03 09:11:58;;;;;;;7.20;4.10;;;;;;;7.95;89.98;96881.10;225657;1267;22859;-77
2024/01/03 09:17:02;;;;;;;5.50;2.50;;;;;;;8.02;89.89;96881.83;225768;1270;25465;-74
2024/01/03 09:22:04;;;;;;;6.40;2.80;;;;;;;8.06;89.61;96888.54;225942;1256;25294;-76
2024/01/03 09:27:07;;;;;;;3.40;2.30;;;;;;;8.14;89.55;96892.34;225849;1256;22634;-76
2024/01/03 09:32:09;;;;;;;4.30;2.80;;;;;;;8.27;89.58;96884.80;226006;1256;22589;-76
2024/01/03 09:37:16;;;;;;;4.80;2.50;;;;;;;8.41;89.39;96880.73;226644;1264;22547;-74
2024/01/03 09:42:22;;;;;;;3.50;2.10;;;;;;;8.57;89.03;96891.84;226327;1265;24276;-76
2024/01/03 09:47:25;;;;;;;3.50;2.20;;;;;;;8.73;88.89;96891.63;226053;1253;22781;-75
2024/01/03 09:52:27;;;;;;;2.70;1.90;;;;;;;8.94;88.78;96888.40;226085;1269;22561;-74
2024/01/03 09:57:31;;;;;;;2.50;1.70;;;;;;;9.08;88.12;96888.30;225957;1269;22575;-76
2024/01/03 10:02:33;;;;;;;3.40;1.50;;;;;;;9.09;87.56;96902.19;226036;1261;22544;-77
2024/01/03 10:07:36;;;;;;;3.60;1.50;;;;;;;9.10;87.49;96899.54;225899;1253;22592;-75
2024/01/03 10:12:38;;;;;;;3.10;2.10;;;;;;;9.17;87.19;96901.20;225824;1260;22519;-77
2024/01/03 10:17:45;;;;;;;3.40;1.90;;;;;;;9.31;87.36;96898.47;225739;1269;22562;-74
2024/01/03 10:22:48;;;;;;;3.90;2.00;;;;;;;9.45;86.73;96899.08;225628;1255;25376;-74
2024/01/03 10:27:59;;;;;;;4.00;2.30;;;;;;;9.58;86.44;96900.07;225634;1269;22549;-74
2024/01/03 10:33:10;;;;;;;3.00;1.80;;;;;;;9.76;85.98;96900.70;225773;1251;22536;-74
2024/01/03 10:38:15;;;;;;;4.40;2.00;;;;;;;9.84;85.43;96897.24;226054;1256;22552;-76
2024/01/03 10:43:18;;;;;;;3.70;2.40;;;;;;;9.76;84.82;96897.27;225958;1268;22552;-76
2024/01/03 10:48:20;;;;;;;5.60;3.30;;;;;;;9.70;85.41;96889.12;226090;1252;24446;-73
2024/01/03 10:53:30;;;;;;;7.40;4.10;;;;;;;9.79;85.37;96889.05;225904;1254;22677;-74
2024/01/03 10:58:32;;;;;;;4.30;3.00;;;;;;;9.85;85.36;96887.56;225844;1251;22491;-73
2024/01/03 11:04:10;;;;;;;4.70;2.30;;;;;;;9.81;85.04;96886.78;226125;1267;22601;-74
2024/01/03 11:09:13;;;;;;;3.60;2.70;;;;;;;9.76;84.79;96885.73;226041;1269;22559;-75
2024/01/03 11:14:18;;;;;;;4.40;2.40;;;;;;;9.80;85.15;96886.80;226040;1256;23191;-76
2024/01/03 11:19:33;;;;;;;3.50;2.10;;;;;;;9.82;84.77;96883.55;225842;1260;22540;-76
2024/01/03 11:24:42;;;;;;;4.70;1.90;;;;;;;9.79;84.47;96885.53;225648;1263;22575;-75
2024/01/03 11:29:45;;;;;;;5.20;2.30;;;;;;;9.77;84.18;96887.71;225445;1256;169409;-77
2024/01/03 11:34:48;;;;;;;3.30;2.30;;;;;;;9.82;84.25;96889.23;225387;1256;25262;-73
2024/01/03 11:39:53;;;;;;;3.70;2.00;;;;;;;9.87;84.33;96892.52;225759;1274;22588;-74
2024/01/03 11:44:59;;;;;;;3.80;1.80;;;;;;;9.88;83.70;96880.61;225564;1272;25297;-77
2024/01/03 11:50:04;;;;;;;2.90;1.60;;;;;;;9.86;83.43;96878.37;225586;1274;22548;-78
2024/01/03 11:55:10;;;;;;;3.40;1.90;;;;;;;9.85;83.50;96866.83;225836;1269;23574;-78
2024/01/03 12:00:15;;;;;;;9.00;2.20;;;;;;;9.88;83.36;96864.48;225773;1273;22535;-76
2024/01/03 12:05:18;;;;;;;3.00;1.80;;;;;;;9.97;83.11;96866.77;225651;1254;22567;-78
2024/01/03 12:10:22;;;;;;;3.30;1.70;;;;;;;10.04;82.77;96857.60;225842;1269;22542;-79
2024/01/03 12:15:28;;;;;;;4.40;1.60;;;;;;;10.06;82.34;96859.92;225724;1269;22546;-76
2024/01/03 12:20:51;;;;;;;4.20;1.40;;;;;;;10.08;82.12;96869.18;225078;1256;22532;-76
2024/01/03 12:25:54;;;;;;;3.90;1.60;;;;;;;10.12;81.82;96872.12;224981;1272;22587;-76
2024/01/03 12:30:58;;;;;;;14.70;3.10;;;;;;;10.11;81.20;96878.69;225077;1268;23002;-76
2024/01/03 12:36:05;;;;;;;8.60;2.60;;;;;;;10.04;81.30;96876.27;225260;1264;22601;-75
2024/01/03 12:41:08;;;;;;;4.80;1.70;;;;;;;9.95;81.42;96877.17;225954;1256;25436;-76
2024/01/03 12:46:10;;;;;;;4.20;1.50;;;;;;;9.82;81.72;96881.17;225867;1272;22539;-76
2024/01/03 12:51:12;;;;;;;5.70;1.60;;;;;;;9.72;82.08;96884.14;225963;1272;23082;-76
2024/01/03 12:56:15;;;;;;;6.70;2.50;;;;;;;9.70;82.30;96880.41;225579;1260;22776;-76
2024/01/03 13:01:17;;;;;;;5.30;2.20;;;;;;;9.67;82.44;96885.46;225829;1270;22544;-78
2024/01/03 13:06:19;;;;;;;6.10;2.10;;;;;;;9.61;82.76;96881.50;225694;1263;22544;-78
2024/01/03 13:11:21;;;;;;;7.90;3.50;;;;;;;9.58;82.91;96874.29;225705;1269;26511;-75
2024/01/03 13:16:24;;;;;;;27.30;3.30;;;;;;;9.57;83.05;96875.63;225865;1264;22638;-76
2024/01/03 13:21:26;;;;;;;5.70;2.30;;;;;;;9.49;83.03;96877.27;225606;1264;22579;-75
2024/01/03 13:26:29;;;;;;;6.70;4.30;;;;;;;9.47;83.33;96880.05;225633;1272;22545;-75
2024/01/03 13:31:32;;;;;;;3.40;2.10;;;;;;;9.46;83.16;96886.73;225603;1267;22540;-77
2024/01/03 13:36:35;;;;;;;3.00;1.70;;;;;;;9.44;83.04;96878.89;225553;1263;22842;-81
2024/01/03 13:41:37;;;;;;;3.60;2.40;;;;;;;9.49;82.67;96879.31;225720;1273;22601;-77
2024/01/03 13:46:40;;;;;;;5.60;2.10;;;;;;;9.51;82.84;96880.66;225905;1270;22539;-76
2024/01/03 13:51:42;;;;;;;4.60;1.70;;;;;;;9.56;82.48;96882.58;225866;1257;22547;-76
2024/01/03 13:56:44;;;;;;;6.50;1.70;;;;;;;9.60;82.19;96885.53;225481;1267;26262;-75
2024/01/03 14:01:48;;;;;;;4.20;1.80;;;;;;;9.61;81.92;96877.89;225434;1263;22581;-78
2024/01/03 14:06:51;;;;;;;3.50;1.80;;;;;;;9.60;81.62;96883.21;225645;1269;22549;-74
2024/01/03 14:11:53;;;;;;;3.40;2.00;;;;;;;9.59;81.49;96887.13;225686;1267;23289;-75
2024/01/03 14:17:00;;;;;;;4.20;2.00;;;;;;;9.58;81.65;96882.19;225717;1272;22553;-76
2024/01/03 14:22:03;;;;;;;3.00;1.80;;;;;;;9.54;81.43;96878.10;225927;1267;22581;-76
2024/01/03 14:27:07;;;;;;;4.50;2.00;;;;;;;9.53;81.15;96873.91;226116;1269;22551;-75
2024/01/03 14:32:10;;;;;;;3.80;1.70;;;;;;;9.51;81.06;96872.07;226026;1256;22468;-75
2024/01/03 14:37:17;;;;;;;5.70;2.20;;;;;;;9.46;81.00;96873.06;225796;1271;22601;-76
2024/01/03 14:42:23;;;;;;;4.50;2.60;;;;;;;9.39;80.89;96880.58;225995;1269;22569;-73
2024/01/03 14:47:25;;;;;;;4.40;1.90;;;;;;;9.33;80.83;96887.05;225983;1256;22638;-75
2024/01/03 14:52:28;;;;;;;3.90;1.70;;;;;;;9.29;80.87;96895.63;226235;1267;22630;-76
2024/01/03 14:57:30;;;;;;;5.60;3.80;;;;;;;9.23;81.09;96896.27;225810;1274;22588;-75
2024/01/03 15:02:32;;;;;;;3.40;2.10;;;;;;;9.17;80.88;96895.27;226080;1272;22540;-76
2024/01/03 15:07:35;;;;;;;5.90;2.20;;;;;;;9.07;80.79;96888.21;226047;1268;22586;-78
2024/01/03 15:12:37;;;;;;;5.10;2.30;;;;;;;8.94;80.87;96894.05;225931;1274;22555;-76
2024/01/03 15:17:39;;;;;;;4.80;2.30;;;;;;;8.82;81.18;96899.95;225906;1274;22699;-76
2024/01/03 15:22:43;;;;;;;6.80;3.20;;;;;;;8.66;81.78;96897.95;225890;1274;22583;-77
2024/01/03 15:27:46;;;;;;;8.00;4.00;;;;;;;8.51;82.52;96901.38;226029;1272;25965;-76
2024/01/03 15:32:49;;;;;;;11.00;4.90;;;;;;;8.37;83.11;96898.70;226309;1274;22532;-76
2024/01/03 15:37:51;;;;;;;10.40;4.50;;;;;;;8.27;83.70;96900.67;226364;1274;22633;-76
2024/01/03 15:42:56;;;;;;;9.50;5.00;;;;;;;8.19;84.10;96903.45;226486;1272;22576;-77
2024/01/03 15:47:59;;;;;;;8.10;5.00;;;;;;;8.11;84.58;96906.51;226432;1274;22573;-77
2024/01/03 15:53:01;;;;;;;11.10;4.80;;;;;;;8.03;84.96;96903.54;226553;1272;22569;-77
2024/01/03 15:58:04;;;;;;;9.30;4.30;;;;;;;8.00;85.38;96907.14;226496;1272;23653;-74
2024/01/03 16:03:06;;;;;;;7.90;4.40;;;;;;;7.97;86.07;96899.52;226490;1274;22545;-76
2024/01/03 16:08:09;;;;;;;7.60;4.40;;;;;;;7.95;85.72;96904.99;226398;1274;22572;-75
2024/01/03 16:13:11;;;;;;;7.00;3.90;;;;;;;7.93;85.95;96902.52;226466;1272;22579;-75
2024/01/03 16:18:13;;;;;;;8.40;4.40;;;;;;;7.89;86.47;96895.90;226354;1274;22541;-76
2024/01/03 16:23:16;;;;;;;8.10;4.80;;;;;;;7.85;86.34;96891.80;226459;1272;22540;-75
2024/01/03 16:28:18;;;;;;;11.20;6.30;;;;;;;7.81;86.55;96889.52;226532;1274;22556;-75
2024/01/03 16:33:21;;;;;;;11.90;5.90;;;;;;;7.76;86.51;96880.22;226470;1272;22558;-76
2024/01/03 16:38:23;;;;;;;12.30;6.30;;;;;;;7.72;86.93;96871.33;226417;1274;22546;-77
2024/01/03 16:43:26;;;;;;;11.90;7.20;;;;;;;7.72;87.11;96866.95;226503;1274;22565;-76
2024/01/03 16:48:29;;;;;;;10.80;6.20;;;;;;;7.72;87.37;96857.12;226317;1274;22540;-76
2024/01/03 16:53:32;;;;;;;11.00;6.60;;;;;;;7.73;87.55;96856.70;226456;1274;22608;-77
2024/01/03 16:58:34;;;;;;;10.90;6.80;;;;;;;7.72;87.69;96851.54;226481;1272;22547;-75
2024/01/03 17:03:37;;;;;;;11.80;6.30;;;;;;;7.72;87.53;96840.83;226520;1274;22576;-75
2024/01/03 17:08:40;;;;;;;12.20;5.70;;;;;;;7.75;87.59;96839.30;226565;1272;25392;-75
2024/01/03 17:13:42;;;;;;;8.20;4.70;;;;;;;7.81;87.48;96832.99;226554;1274;23620;-76
2024/01/03 17:18:57;;;;;;;13.40;5.20;;;;;;;7.85;87.36;96835.10;226410;1275;22581;-75
2024/01/03 17:24:00;;;;;;;10.40;5.00;;;;;;;7.83;86.87;96829.33;226477;1274;22543;-75
2024/01/03 17:29:06;;;;;;;8.80;5.20;;;;;;;7.84;87.00;96831.63;226589;1274;22543;-75
2024/01/03 17:34:09;;;;;;;9.80;5.90;;;;;;;7.85;87.10;96831.55;226418;1272;22539;-75
2024/01/03 17:39:11;;;;;;;10.10;5.20;;;;;;;7.86;87.00;96829.67;226533;1273;22558;-75
2024/01/03 17:44:14;;;;;;;15.50;5.80;;;;;;;7.86;86.98;96834.69;226343;1274;24604;-76
2024/01/03 17:49:18;;;;;;;10.20;5.40;;;;;;;7.89;86.78;96837.05;226422;1274;22814;-77
2024/01/03 17:54:21;;;;;;;9.90;5.60;;;;;;;7.89;86.71;96839.08;226528;1274;22546;-76
2024/01/03 17:59:24;;;;;;;14.40;6.60;;;;;;;7.87;86.56;96842.54;226295;1274;22543;-77
2024/01/03 18:04:26;;;;;;;14.30;6.50;;;;;;;7.85;86.50;96839.23;226262;1274;23271;-75
2024/01/03 18:09:28;;;;;;;13.40;6.30;;;;;;;7.82;86.40;96841.39;226494;1272;22552;-75
2024/01/03 18:14:35;;;;;;;12.90;6.70;;;;;;;7.80;85.94;96838.75;226321;1274;22543;-77
2024/01/03 18:19:38;;;;;;;12.90;5.90;;;;;;;7.80;86.29;96841.48;226394;1274;22592;-76
2024/01/03 18:24:44;;;;;;;11.90;6.00;;;;;;;7.82;85.91;96836.23;226469;1274;22580;-77
2024/01/03 18:29:46;;;;;;;12.20;6.50;;;;;;;7.83;85.88;96837.67;226369;1274;22577;-75
2024/01/03 18:34:49;;;;;;;9.20;4.90;;;;;;;7.84;85.89;96833.90;226414;1274;22619;-75
2024/01/03 18:39:52;;;;;;;8.30;4.50;;;;;;;7.84;85.81;96827.42;226521;1272;22558;-75
2024/01/03 18:44:57;;;;;;;9.40;4.70;;;;;;;7.81;85.70;96827.52;226309;1274;22554;-75
2024/01/03 18:50:04;;;;;;;8.70;4.60;;;;;;;7.78;85.67;96826.71;226627;1273;23610;-76
2024/01/03 18:55:07;;;;;;;6.80;4.10;;;;;;;7.78;85.28;96827.71;226556;1274;23674;-75
2024/01/03 19:00:11;;;;;;;9.20;4.80;;;;;;;7.82;85.20;96828.49;226361;1274;22548;-74
2024/01/03 19:05:17;;;;;;;7.70;5.00;;;;;;;7.84;84.94;96831.55;226470;1272;24480;-80
2024/01/03 19:10:20;;;;;;;7.80;4.30;;;;;;;7.87;84.84;96833.70;226442;1273;22641;-76
2024/01/03 19:15:23;;;;;;;6.80;3.80;;;;;;;7.92;84.64;96836.63;226443;1272;22551;-76
2024/01/03 19:20:26;;;;;;;8.20;4.10;;;;;;;7.98;84.12;96834.88;226484;1274;22544;-76
2024/01/03 19:25:28;;;;;;;6.60;4.20;;;;;;;8.00;84.35;96845.09;226506;1273;22964;-76
2024/01/03 19:30:30;;;;;;;7.40;4.10;;;;;;;8.01;84.11;96849.61;226588;1274;22554;-75
2024/01/03 19:35:39;;;;;;;9.90;4.00;;;;;;;8.04;83.68;96853.60;226447;1275;22546;-76
2024/01/03 19:40:41;;;;;;;8.10;4.40;;;;;;;8.06;83.39;96851.03;226595;1274;22555;-76
2024/01/03 19:45:44;;;;;;;6.80;3.80;;;;;;;8.05;83.19;96842.16;226492;1274;22593;-75
2024/01/03 19:50:47;;;;;;;6.60;3.00;;;;;;;8.00;82.99;96855.23;226533;1274;22547;-76
2024/01/03 19:55:52;;;;;;;5.50;3.20;;;;;;;8.00;82.84;96854.75;226343;1274;22617;-77
2024/01/03 20:00:55;;;;;;;5.10;2.70;;;;;;;8.03;83.06;96847.82;226401;1274;25220;-77
2024/01/03 20:05:58;;;;;;;5.10;2.90;;;;;;;8.07;82.57;96853.00;226331;1274;25439;-75
2024/01/03 20:11:03;;;;;;;5.70;2.70;;;;;;;8.11;82.76;96844.83;226466;1273;22983;-75
2024/01/03 20:16:07;;;;;;;5.90;3.00;;;;;;;8.12;82.66;96843.53;226384;1274;22549;-76
2024/01/03 20:21:11;;;;;;;5.40;2.80;;;;;;;8.07;82.47;96849.33;226520;1274;22583;-76
2024/01/03 20:26:15;;;;;;;7.70;3.60;;;;;;;8.01;82.11;96856.71;226546;1274;25487;-77
2024/01/03 20:31:21;;;;;;;7.90;3.40;;;;;;;7.91;82.23;96855.64;226348;1274;22566;-77
2024/01/03 20:36:25;;;;;;;8.10;3.40;;;;;;;7.81;82.43;96852.72;226348;1274;22596;-76
2024/01/03 20:41:27;;;;;;;10.00;5.30;;;;;;;7.71;82.24;96850.95;226471;1274;22537;-75
2024/01/03 20:46:30;;;;;;;11.50;4.80;;;;;;;7.63;82.37;96848.77;226459;1274;22565;-76
2024/01/03 20:51:32;;;;;;;7.70;3.80;;;;;;;7.55;82.85;96845.89;226448;1274;22549;-77
2024/01/03 20:56:48;;;;;;;7.60;4.00;;;;;;;7.50;82.84;96841.94;226502;1266;24262;-77
2024/01/03 21:01:51;;;;;;;6.80;3.70;;;;;;;7.45;82.74;96835.79;226446;1273;22588;-76
2024/01/03 21:06:56;;;;;;;8.20;3.80;;;;;;;7.41;82.79;96832.11;226411;1274;22540;-75
2024/01/03 21:11:58;;;;;;;6.90;3.60;;;;;;;7.39;82.88;96832.42;226502;1251;22573;-74
2024/01/03 21:17:00;;;;;;;7.50;4.00;;;;;;;7.41;83.27;96833.70;226298;1274;22568;-76
2024/01/03 21:22:02;;;;;;;6.80;3.40;;;;;;;7.49;83.09;96836.38;226370;1274;22579;-75
2024/01/03 21:27:06;;;;;;;6.80;3.30;;;;;;;7.56;83.28;96834.08;226477;1274;23270;-75
2024/01/03 21:32:28;;;;;;;5.80;3.40;;;;;;;7.64;82.76;96837.59;226489;1270;22551;-76
2024/01/03 21:37:32;;;;;;;5.00;2.80;;;;;;;7.71;82.92;96839.76;226656;1270;22550;-75
2024/01/03 21:42:35;;;;;;;5.60;2.80;;;;;;;7.79;82.92;96840.94;226466;1274;23126;-77
2024/01/03 21:47:40;;;;;;;6.60;2.90;;;;;;;7.88;82.53;96832.18;226459;1270;22586;-76
2024/01/03 21:52:46;;;;;;;6.50;2.80;;;;;;;7.92;82.76;96830.48;226600;1274;22550;-75
2024/01/03 21:57:48;;;;;;;7.00;3.20;;;;;;;7.92;82.57;96831.16;226574;1274;22581;-76
2024/01/03 22:02:51;;;;;;;5.40;2.90;;;;;;;7.93;82.77;96831.77;226246;1274;22676;-76
2024/01/03 22:07:56;;;;;;;7.20;3.60;;;;;;;7.95;82.45;96829.73;226624;1274;22609;-76
2024/01/03 22:12:59;;;;;;;7.80;3.30;;;;;;;7.99;82.42;96830.52;226467;1274;22540;-76
2024/01/03 22:18:02;;;;;;;7.00;3.40;;;;;;;8.04;82.34;96821.77;226492;1273;22814;-76
2024/01/03 22:23:09;;;;;;;7.80;3.60;;;;;;;8.06;82.27;96811.78;226453;1272;22562;-77
2024/01/03 22:28:11;;;;;;;6.20;3.40;;;;;;;8.07;82.08;96811.98;226414;1274;22580;-77
2024/01/03 22:33:14;;;;;;;6.20;2.90;;;;;;;8.05;82.06;96811.19;226479;1274;22648;-76
2024/01/03 22:38:17;;;;;;;5.20;2.70;;;;;;;8.04;82.03;96815.89;226425;1275;22554;-78
2024/01/03 22:43:20;;;;;;;5.90;2.70;;;;;;;8.02;82.16;96801.84;226379;1273;25350;-77
2024/01/03 22:48:22;;;;;;;4.40;2.40;;;;;;;8.01;82.37;96793.92;226369;1274;25268;-76
2024/01/03 22:53:26;;;;;;;7.30;3.20;;;;;;;7.97;82.12;96798.07;226564;1270;25490;-76
2024/01/03 22:58:28;;;;;;;5.50;3.10;;;;;;;7.94;82.39;96799.39;226387;1274;22547;-76
2024/01/03 23:03:31;;;;;;;6.40;2.70;;;;;;;7.94;81.77;96789.89;226466;1270;22548;-76
2024/01/03 23:08:33;;;;;;;3.90;2.40;;;;;;;7.93;82.00;96786.49;226390;1274;22586;-76
2024/01/03 23:13:35;;;;;;;4.60;2.60;;;;;;;7.88;81.82;96780.45;226591;1270;22702;-77
2024/01/03 23:18:37;;;;;;;4.80;2.30;;;;;;;7.82;81.75;96782.39;226533;1274;22570;-76
2024/01/03 23:23:40;;;;;;;3.30;2.00;;;;;;;7.77;81.59;96779.52;226390;1274;22559;-76
2024/01/03 23:28:46;;;;;;;3.50;1.70;;;;;;;7.77;81.56;96771.06;225964;1273;520190;-75
2024/01/03 23:33:49;;;;;;;3.60;1.80;;;;;;;7.82;81.27;96771.35;226539;1273;22543;-74
2024/01/03 23:38:51;;;;;;;3.40;1.60;;;;;;;7.83;81.57;96757.70;226413;1273;22582;-76
2024/01/03 23:43:53;;;;;;;3.10;1.80;;;;;;;7.80;81.16;96753.13;226389;1273;22556;-76